createdAt,value
2022-08-29T00:01:01.082Z,39.78
2022-08-29T00:03:32.930Z,37.50
2022-08-29T00:06:03.607Z,38.13
2022-08-29T00:08:32.818Z,38.67
2022-08-29T00:11:01.865Z,38.70
2022-08-29T00:13:36.192Z,41.38
2022-08-29T00:16:05.779Z,37.78
2022-08-29T00:18:43.891Z,41.00
2022-08-29T00:21:13.359Z,42.90
2022-08-29T00:23:42.384Z,39.03
2022-08-29T00:28:51.285Z,38.78
2022-08-29T00:31:25.582Z,39.33
2022-08-29T00:33:57.253Z,41.20
2022-08-29T00:38:59.852Z,31.25
2022-08-29T00:41:28.945Z,35.08
2022-08-29T00:43:58.212Z,36.78
2022-08-29T00:46:56.277Z,30.27
2022-08-29T00:49:38.807Z,28.27
2022-08-29T00:52:13.470Z,29.08
2022-08-29T00:54:45.224Z,28.60
2022-08-29T00:57:21.660Z,31.50
2022-08-29T00:59:52.694Z,31.98
2022-08-29T01:02:22.389Z,30.77
2022-08-29T01:04:53.867Z,35.22
2022-08-29T01:07:28.706Z,32.38
2022-08-29T01:09:57.912Z,29.40
2022-08-29T01:12:26.649Z,31.08
2022-08-29T01:14:58.597Z,29.42
2022-08-29T01:20:05.480Z,30.85
2022-08-29T01:22:47.063Z,28.30
2022-08-29T01:25:23.145Z,27.88
2022-08-29T01:28:00.408Z,25.30
2022-08-29T01:30:35.201Z,22.13
2022-08-29T01:33:04.428Z,26.17
2022-08-29T01:35:34.019Z,24.13
2022-08-29T01:38:09.146Z,19.13
2022-08-29T01:40:40.799Z,21.35
2022-08-29T01:48:14.526Z,18.75
2022-08-29T01:50:44.042Z,18.73
2022-08-29T01:55:50.208Z,17.90
2022-08-29T01:58:19.669Z,16.30
2022-08-29T02:00:49.157Z,15.63
2022-08-29T02:03:18.685Z,16.58
2022-08-29T02:05:48.603Z,15.77
2022-08-29T02:08:20.370Z,15.75
2022-08-29T02:10:51.929Z,14.73
2022-08-29T02:13:21.127Z,14.02
2022-08-29T02:15:50.263Z,15.27
2022-08-29T02:18:20.229Z,14.55
2022-08-29T02:20:50.326Z,14.48
2022-08-29T02:23:30.507Z,16.00
2022-08-29T02:26:02.502Z,14.70
2022-08-29T02:28:32.013Z,16.73
2022-08-29T02:31:01.517Z,16.75
2022-08-29T02:33:36.232Z,14.25
2022-08-29T02:36:08.387Z,15.82
2022-08-29T02:41:14.050Z,14.73
2022-08-29T02:43:49.588Z,14.70
2022-08-29T02:46:20.470Z,14.85
2022-08-29T02:48:58.237Z,14.43
2022-08-29T02:51:32.568Z,14.40
2022-08-29T02:54:02.914Z,13.20
2022-08-29T02:56:33.928Z,14.10
2022-08-29T02:59:03.026Z,13.18
2022-08-29T03:01:33.022Z,11.25
2022-08-29T03:04:08.987Z,14.45
2022-08-29T03:06:38.175Z,13.57
2022-08-29T03:09:08.156Z,14.45
2022-08-29T03:11:39.463Z,13.15
2022-08-29T03:14:08.802Z,14.77
2022-08-29T03:16:38.663Z,12.60
2022-08-29T03:19:07.834Z,14.55
2022-08-29T03:21:37.064Z,14.13
2022-08-29T03:24:06.319Z,14.38
2022-08-29T03:26:42.522Z,15.07
2022-08-29T03:29:16.630Z,13.45
2022-08-29T03:31:46.657Z,14.02
2022-08-29T03:34:16.270Z,13.82
2022-08-29T03:36:45.484Z,14.95
2022-08-29T03:39:14.601Z,14.93
2022-08-29T03:41:50.732Z,13.80
2022-08-29T03:44:21.768Z,13.15
2022-08-29T03:46:51.058Z,13.35
2022-08-29T03:49:20.190Z,14.57
2022-08-29T03:51:49.623Z,15.23
2022-08-29T03:54:18.726Z,15.18
2022-08-29T03:56:48.231Z,14.98
2022-08-29T03:59:20.323Z,14.50
2022-08-29T04:01:49.751Z,14.85
2022-08-29T04:04:32.782Z,13.48
2022-08-29T04:07:08.461Z,13.88
2022-08-29T04:09:39.275Z,13.98
2022-08-29T04:12:10.933Z,15.40
2022-08-29T04:14:48.144Z,12.07
2022-08-29T04:17:17.271Z,12.52
2022-08-29T04:19:48.948Z,16.05
2022-08-29T04:22:19.439Z,15.35
2022-08-29T04:24:48.545Z,17.48
2022-08-29T04:27:17.620Z,14.55
2022-08-29T04:29:49.810Z,17.70
2022-08-29T04:32:19.524Z,16.63
2022-08-29T04:34:48.694Z,16.42
2022-08-29T04:39:58.489Z,12.63
2022-08-29T04:42:28.273Z,18.25
2022-08-29T04:44:59.573Z,16.95
2022-08-29T04:47:28.843Z,17.88
2022-08-29T04:49:58.586Z,18.08
2022-08-29T04:52:29.165Z,17.25
2022-08-29T04:54:59.065Z,17.43
2022-08-29T04:57:29.146Z,19.27
2022-08-29T05:00:01.080Z,18.25
2022-08-29T05:02:30.390Z,17.95
2022-08-29T05:04:59.482Z,17.33
2022-08-29T05:07:28.978Z,18.73
2022-08-29T05:10:00.569Z,18.85
2022-08-29T05:12:36.164Z,19.42
2022-08-29T05:15:08.852Z,19.95
2022-08-29T05:17:43.625Z,19.33
2022-08-29T05:20:17.793Z,20.23
2022-08-29T05:22:46.989Z,21.35
2022-08-29T05:25:18.475Z,20.70
2022-08-29T05:30:35.214Z,21.80
2022-08-29T05:33:05.300Z,23.40
2022-08-29T05:35:34.734Z,22.70
2022-08-29T05:38:09.186Z,24.38
2022-08-29T05:40:39.415Z,23.33
2022-08-29T05:43:09.710Z,23.75
2022-08-29T05:45:46.003Z,24.83
2022-08-29T05:48:16.939Z,24.40
2022-08-29T05:50:46.490Z,25.05
2022-08-29T05:53:18.886Z,27.02
2022-08-29T05:55:48.149Z,27.08
2022-08-29T05:58:17.932Z,27.48
2022-08-29T06:00:50.556Z,29.35
2022-08-29T06:03:20.520Z,28.08
2022-08-29T06:05:53.446Z,28.90
2022-08-29T06:08:22.925Z,29.15
2022-08-29T06:10:52.069Z,29.80
2022-08-29T06:13:21.487Z,32.45
2022-08-29T06:15:53.074Z,30.00
2022-08-29T06:18:34.337Z,29.38
2022-08-29T06:21:06.671Z,30.08
2022-08-29T06:23:42.631Z,28.92
2022-08-29T06:26:13.678Z,28.20
2022-08-29T06:28:45.493Z,26.98
2022-08-29T06:31:20.298Z,28.30
2022-08-29T06:33:51.880Z,29.20
2022-08-29T06:38:50.363Z,28.33
2022-08-29T06:41:20.283Z,30.67
2022-08-29T06:43:50.876Z,29.30
2022-08-29T06:46:29.774Z,30.00
2022-08-29T06:49:00.461Z,29.90
2022-08-29T06:51:37.659Z,30.77
2022-08-29T06:54:13.716Z,30.25
2022-08-29T06:56:46.083Z,29.65
2022-08-29T06:59:15.434Z,27.88
2022-08-29T07:01:47.553Z,27.45
2022-08-29T07:04:20.619Z,27.38
2022-08-29T07:06:51.016Z,26.92
2022-08-29T07:09:20.273Z,25.65
2022-08-29T07:11:49.404Z,25.52
2022-08-29T07:14:18.477Z,25.00
2022-08-29T07:16:49.750Z,25.98
2022-08-29T07:19:24.061Z,26.45
2022-08-29T07:21:53.934Z,25.92
2022-08-29T07:24:27.509Z,24.25
2022-08-29T07:26:58.797Z,24.42
2022-08-29T07:31:58.453Z,21.88
2022-08-29T07:34:27.851Z,22.98
2022-08-29T07:36:56.949Z,19.77
2022-08-29T07:39:26.434Z,19.85
2022-08-29T07:41:55.639Z,18.58
2022-08-29T07:44:24.766Z,19.42
2022-08-29T07:47:07.210Z,18.85
2022-08-29T07:49:41.493Z,16.70
2022-08-29T07:52:12.002Z,15.95
2022-08-29T07:54:41.160Z,14.27
2022-08-29T07:57:10.202Z,13.63
2022-08-29T07:59:41.595Z,12.75
2022-08-29T08:02:13.291Z,11.45
2022-08-29T08:04:42.665Z,11.60
2022-08-29T08:07:16.712Z,10.68
2022-08-29T08:09:46.804Z,9.93
2022-08-29T08:12:22.667Z,8.75
2022-08-29T08:14:51.907Z,7.63
2022-08-29T08:17:23.025Z,7.72
2022-08-29T08:19:53.111Z,7.03
2022-08-29T08:22:22.230Z,6.68
2022-08-29T08:24:51.440Z,6.05
2022-08-29T08:27:20.739Z,6.40
2022-08-29T08:29:49.778Z,6.25
2022-08-29T08:32:18.867Z,5.85
2022-08-29T08:34:50.125Z,5.90
2022-08-29T08:37:28.019Z,5.32
2022-08-29T08:40:04.460Z,4.67
2022-08-29T08:42:42.324Z,4.55
2022-08-29T08:45:13.597Z,4.18
2022-08-29T08:47:47.061Z,4.47
2022-08-29T08:50:30.843Z,5.00
2022-08-29T08:53:07.536Z,4.40
2022-08-29T08:55:42.853Z,5.15
2022-08-29T08:58:28.962Z,5.03
2022-08-29T09:01:03.103Z,4.50
2022-08-29T09:04:05.123Z,5.03
2022-08-29T09:06:55.148Z,4.85
2022-08-29T09:09:35.475Z,4.18
2022-08-29T09:12:17.825Z,4.03
2022-08-29T09:14:59.773Z,4.30
2022-08-29T09:17:36.705Z,4.13
2022-08-29T09:20:10.371Z,4.55
2022-08-29T09:22:44.318Z,4.60
2022-08-29T09:25:14.885Z,3.83
2022-08-29T09:27:49.964Z,3.95
2022-08-29T09:30:26.207Z,4.50
2022-08-29T09:33:00.322Z,3.70
2022-08-29T09:35:36.670Z,4.05
2022-08-29T09:38:14.517Z,3.42
2022-08-29T09:40:54.266Z,4.10
2022-08-29T09:43:28.624Z,4.30
2022-08-29T09:46:18.364Z,4.13
2022-08-29T09:48:49.798Z,5.07
2022-08-29T09:51:29.804Z,4.45
2022-08-29T09:54:23.012Z,4.68
2022-08-29T09:56:56.217Z,4.70
2022-08-29T09:59:33.485Z,4.30
2022-08-29T10:02:20.654Z,4.20
2022-08-29T10:04:57.876Z,4.13
2022-08-29T10:07:29.465Z,4.68
2022-08-29T10:10:03.579Z,4.38
2022-08-29T10:12:49.083Z,4.03
2022-08-29T10:15:46.581Z,4.63
2022-08-29T10:18:34.039Z,4.20
2022-08-29T10:21:14.345Z,4.65
2022-08-29T10:24:15.938Z,5.32
2022-08-29T10:27:02.749Z,5.30
2022-08-29T10:29:48.597Z,6.38
2022-08-29T10:32:35.670Z,5.38
2022-08-29T10:35:13.403Z,4.95
2022-08-29T10:37:56.626Z,5.68
2022-08-29T10:40:30.720Z,5.47
2022-08-29T10:43:25.883Z,5.53
2022-08-29T10:46:20.270Z,5.43
2022-08-29T10:48:59.927Z,5.97
2022-08-29T10:51:40.298Z,5.43
2022-08-29T10:54:20.844Z,4.55
2022-08-29T10:56:50.924Z,5.13
2022-08-29T10:59:34.199Z,5.05
2022-08-29T11:02:10.771Z,4.80
2022-08-29T11:04:50.575Z,5.57
2022-08-29T11:07:25.506Z,5.30
2022-08-29T11:09:58.481Z,5.05
2022-08-29T11:12:36.034Z,5.10
2022-08-29T11:15:15.934Z,4.53
2022-08-29T11:17:57.372Z,4.05
2022-08-29T11:23:03.150Z,4.55
2022-08-29T11:25:46.592Z,4.25
2022-08-29T11:28:26.607Z,4.78
2022-08-29T11:31:11.741Z,3.75
2022-08-29T11:33:49.087Z,4.40
2022-08-29T11:36:32.398Z,4.85
2022-08-29T11:39:31.663Z,5.03
2022-08-29T11:42:08.033Z,4.60
2022-08-29T11:44:40.802Z,4.60
2022-08-29T11:47:41.163Z,4.75
2022-08-29T11:50:24.133Z,4.72
2022-08-29T11:52:57.137Z,4.18
2022-08-29T11:55:35.349Z,4.88
2022-08-29T11:58:46.372Z,4.32
2022-08-29T12:01:50.406Z,4.07
2022-08-29T12:04:56.789Z,5.22
2022-08-29T12:07:37.160Z,4.53
2022-08-29T12:10:09.603Z,4.57
2022-08-29T12:12:43.469Z,4.35
2022-08-29T12:15:54.394Z,5.22
2022-08-29T12:18:46.823Z,5.53
2022-08-29T12:21:46.767Z,5.50
2022-08-29T12:24:57.264Z,4.95
2022-08-29T12:27:59.323Z,5.03
2022-08-29T12:30:28.837Z,4.57
2022-08-29T12:33:10.184Z,4.82
2022-08-29T12:36:10.523Z,4.70
2022-08-29T12:38:55.797Z,5.03
2022-08-29T12:41:46.281Z,4.57
2022-08-29T12:44:17.858Z,4.85
2022-08-29T12:46:52.190Z,4.40
2022-08-29T12:49:25.035Z,5.32
2022-08-29T12:57:25.953Z,4.32
2022-08-29T12:59:58.784Z,4.30
2022-08-29T13:02:32.250Z,4.30
2022-08-29T13:05:02.295Z,4.47
2022-08-29T13:10:20.167Z,3.95
2022-08-29T13:12:51.666Z,4.40
2022-08-29T13:15:28.667Z,4.80
2022-08-29T13:18:01.605Z,4.40
2022-08-29T13:20:48.793Z,3.88
2022-08-29T13:23:27.471Z,3.92
2022-08-29T13:26:00.834Z,4.68
2022-08-29T13:28:37.920Z,4.63
2022-08-29T13:31:26.492Z,4.60
2022-08-29T13:34:26.031Z,4.90
2022-08-29T13:37:02.059Z,4.93
2022-08-29T13:39:45.432Z,4.63
2022-08-29T13:42:27.077Z,4.47
2022-08-29T13:45:25.873Z,5.10
2022-08-29T13:48:15.029Z,4.80
2022-08-29T13:50:49.643Z,4.30
2022-08-29T13:53:18.858Z,3.92
2022-08-29T13:55:48.063Z,4.40
2022-08-29T13:58:20.734Z,3.60
2022-08-29T14:00:53.443Z,4.97
2022-08-29T14:03:23.443Z,4.25
2022-08-29T14:05:55.899Z,4.43
2022-08-29T14:08:26.235Z,4.32
2022-08-29T14:11:00.383Z,4.03
2022-08-29T14:16:08.107Z,3.53
2022-08-29T14:18:37.589Z,4.00
2022-08-29T14:21:06.761Z,3.67
2022-08-29T14:23:36.368Z,3.88
2022-08-29T14:26:06.604Z,4.88
2022-08-29T14:28:43.876Z,5.70
2022-08-29T14:31:18.768Z,10.68
2022-08-29T14:33:52.997Z,4.32
2022-08-29T14:36:25.634Z,3.90
2022-08-29T14:39:04.165Z,3.60
2022-08-29T14:41:33.278Z,4.82
2022-08-29T14:44:02.711Z,3.38
2022-08-29T14:46:34.002Z,3.60
2022-08-29T14:49:04.255Z,3.80
2022-08-29T14:51:33.562Z,4.50
2022-08-29T14:54:03.099Z,4.07
2022-08-29T14:56:48.111Z,4.18
2022-08-29T14:59:18.635Z,3.90
2022-08-29T15:01:54.552Z,3.80
2022-08-29T15:04:35.457Z,4.15
2022-08-29T15:07:09.920Z,3.78
2022-08-29T15:09:41.335Z,4.75
2022-08-29T15:14:42.067Z,4.00
2022-08-29T15:17:14.446Z,4.00
2022-08-29T15:22:37.958Z,3.97
2022-08-29T15:25:08.534Z,4.30
2022-08-29T15:27:37.669Z,3.83
2022-08-29T15:30:07.909Z,3.92
2022-08-29T15:32:40.355Z,3.22
2022-08-29T15:35:14.169Z,3.60
2022-08-29T15:37:44.716Z,4.20
2022-08-29T15:40:14.541Z,4.13
2022-08-29T15:42:50.034Z,3.95
2022-08-29T15:45:19.157Z,4.07
2022-08-29T15:47:54.385Z,4.13
2022-08-29T15:50:24.660Z,3.95
2022-08-29T15:52:54.178Z,4.20
2022-08-29T15:57:54.308Z,4.22
2022-08-29T16:00:30.639Z,3.95
2022-08-29T16:03:10.390Z,3.35
2022-08-29T16:05:40.631Z,4.03
2022-08-29T16:08:10.593Z,3.30
2022-08-29T16:10:46.064Z,4.30
2022-08-29T16:13:15.266Z,4.00
2022-08-29T16:15:44.495Z,3.75
2022-08-29T16:18:15.600Z,4.38
2022-08-29T16:20:44.871Z,5.13
2022-08-29T16:23:15.580Z,5.13
2022-08-29T16:25:49.897Z,4.60
2022-08-29T16:28:19.298Z,3.90
2022-08-29T16:30:52.721Z,3.05
2022-08-29T16:33:29.594Z,3.35
2022-08-29T16:36:00.284Z,3.92
2022-08-29T16:38:32.898Z,3.58
2022-08-29T16:41:08.209Z,3.70
2022-08-29T16:43:39.185Z,3.95
2022-08-29T16:46:09.331Z,4.43
2022-08-29T16:48:41.147Z,4.05
2022-08-29T16:51:10.869Z,3.80
2022-08-29T16:53:40.905Z,3.53
2022-08-29T16:56:13.737Z,3.72
2022-08-29T16:58:56.660Z,4.20
2022-08-29T17:01:25.942Z,4.63
2022-08-29T17:03:57.276Z,4.32
2022-08-29T17:06:26.494Z,4.55
2022-08-29T17:11:27.319Z,5.63
2022-08-29T17:13:55.049Z,5.50
2022-08-29T17:16:23.864Z,6.35
2022-08-29T17:18:53.327Z,6.05
2022-08-29T17:21:30.010Z,5.55
2022-08-29T17:23:59.720Z,5.90
2022-08-29T17:26:34.633Z,5.65
2022-08-29T17:29:09.137Z,5.28
2022-08-29T17:31:41.249Z,5.20
2022-08-29T17:34:16.746Z,5.43
2022-08-29T17:36:49.191Z,5.47
2022-08-29T17:39:20.036Z,5.57
2022-08-29T17:41:52.299Z,6.20
2022-08-29T17:44:22.043Z,6.10
2022-08-29T17:46:56.608Z,6.07
2022-08-29T17:49:27.082Z,5.20
2022-08-29T17:51:58.873Z,5.40
2022-08-29T17:54:28.417Z,6.00
2022-08-29T17:56:59.592Z,6.40
2022-08-29T17:59:35.740Z,6.47
2022-08-29T18:02:05.750Z,6.15
2022-08-29T18:04:34.965Z,6.70
2022-08-29T18:07:06.413Z,6.18
2022-08-29T18:09:35.977Z,5.90
2022-08-29T18:12:05.705Z,6.32
2022-08-29T18:14:34.935Z,6.35
2022-08-29T18:17:04.211Z,6.50
2022-08-29T18:19:33.742Z,7.13
2022-08-29T18:22:02.981Z,6.93
2022-08-29T18:24:39.443Z,6.68
2022-08-29T18:27:08.736Z,6.57
2022-08-29T18:29:38.061Z,8.38
2022-08-29T18:34:47.693Z,6.43
2022-08-29T18:37:17.660Z,6.45
2022-08-29T18:39:48.956Z,6.78
2022-08-29T18:42:37.152Z,6.00
2022-08-29T18:45:10.081Z,7.20
2022-08-29T18:47:39.622Z,6.30
2022-08-29T18:50:25.103Z,6.00
2022-08-29T18:52:55.044Z,5.82
2022-08-29T18:55:28.521Z,6.55
2022-08-29T18:57:58.308Z,7.30
2022-08-29T19:00:28.472Z,7.07
2022-08-29T19:05:42.222Z,6.80
2022-08-29T19:08:11.711Z,6.65
2022-08-29T19:10:42.975Z,8.05
2022-08-29T19:13:12.253Z,7.10
2022-08-29T19:15:48.071Z,6.97
2022-08-29T19:18:18.744Z,7.10
2022-08-29T19:21:01.189Z,6.40
2022-08-29T19:23:32.289Z,6.15
2022-08-29T19:26:07.608Z,7.30
2022-08-29T19:28:37.026Z,6.95
2022-08-29T19:31:06.497Z,6.85
2022-08-29T19:33:36.713Z,7.05
2022-08-29T19:36:13.932Z,7.55
2022-08-29T19:38:43.796Z,6.57
2022-08-29T19:41:17.125Z,6.65
2022-08-29T19:43:46.423Z,6.32
2022-08-29T19:46:18.364Z,6.57
2022-08-29T19:48:50.864Z,5.88
2022-08-29T19:51:24.742Z,6.38
2022-08-29T19:53:56.256Z,6.18
2022-08-29T19:56:28.781Z,7.40
2022-08-29T19:58:59.135Z,6.38
2022-08-29T20:01:29.040Z,7.53
2022-08-29T20:03:58.211Z,7.68
2022-08-29T20:06:27.732Z,7.25
2022-08-29T20:08:58.272Z,7.47
2022-08-29T20:11:30.560Z,6.60
2022-08-29T20:14:07.315Z,6.18
2022-08-29T20:16:41.336Z,6.40
2022-08-29T20:19:11.117Z,6.47
2022-08-29T20:21:40.642Z,7.15
2022-08-29T20:24:15.472Z,6.28
2022-08-29T20:26:49.374Z,6.10
2022-08-29T20:29:26.752Z,6.95
2022-08-29T20:31:57.330Z,5.95
2022-08-29T20:34:30.064Z,6.75
2022-08-29T20:37:09.953Z,7.75
2022-08-29T20:39:46.431Z,6.78
2022-08-29T20:42:21.477Z,7.65
2022-08-29T20:44:50.858Z,7.65
2022-08-29T20:47:22.232Z,8.20
2022-08-29T20:49:52.140Z,7.20
2022-08-29T20:52:21.660Z,7.90
2022-08-29T20:54:51.320Z,7.60
2022-08-29T20:57:22.425Z,8.00
2022-08-29T20:59:53.624Z,7.43
2022-08-29T21:02:28.081Z,7.57
2022-08-29T21:05:16.105Z,7.80
2022-08-29T21:07:47.132Z,8.00
2022-08-29T21:10:17.104Z,9.57
2022-08-29T21:12:48.285Z,7.55
2022-08-29T21:15:17.634Z,7.57
2022-08-29T21:17:46.876Z,7.53
2022-08-29T21:20:16.331Z,7.93
2022-08-29T21:22:45.640Z,8.07
2022-08-29T21:25:20.238Z,7.45
2022-08-29T21:27:51.476Z,8.40
2022-08-29T21:32:56.540Z,7.70
2022-08-29T21:35:25.696Z,7.35
2022-08-29T21:37:55.011Z,6.82
2022-08-29T21:40:25.471Z,7.05
2022-08-29T21:42:56.772Z,7.40
2022-08-29T21:45:25.915Z,7.35
2022-08-29T21:47:57.365Z,7.05
2022-08-29T21:52:56.550Z,7.18
2022-08-29T21:55:26.429Z,6.78
2022-08-29T21:57:59.283Z,8.07
2022-08-29T22:00:32.115Z,7.63
2022-08-29T22:03:02.951Z,8.15
2022-08-29T22:05:40.761Z,7.75
2022-08-29T22:08:13.228Z,7.95
2022-08-29T22:10:44.741Z,8.90
2022-08-29T22:13:16.284Z,8.10
2022-08-29T22:16:10.173Z,7.70
2022-08-29T22:18:39.364Z,7.70
2022-08-29T22:21:13.379Z,7.82
2022-08-29T22:26:19.376Z,8.55
2022-08-29T22:28:50.815Z,8.15
2022-08-29T22:31:20.655Z,6.75
2022-08-29T22:33:50.803Z,7.30
2022-08-29T22:36:22.899Z,7.97
2022-08-29T22:38:56.666Z,7.47
2022-08-29T22:41:32.165Z,7.50
2022-08-29T22:44:42.398Z,7.30
2022-08-29T22:46:53.592Z,7.32
2022-08-29T22:49:25.538Z,8.00
2022-08-29T22:52:02.640Z,8.18
2022-08-29T22:54:41.422Z,8.32
2022-08-29T22:57:13.583Z,8.95
2022-08-29T22:59:45.793Z,8.10
2022-08-29T23:02:15.554Z,8.43
2022-08-29T23:04:47.108Z,8.80
2022-08-29T23:07:17.078Z,9.63
2022-08-29T23:09:46.390Z,8.90
2022-08-29T23:12:17.099Z,9.40
2022-08-29T23:14:48.512Z,9.13
2022-08-29T23:17:19.568Z,8.88
2022-08-29T23:19:49.949Z,8.48
2022-08-29T23:22:25.578Z,8.38
2022-08-29T23:24:58.838Z,8.43
2022-08-29T23:27:29.275Z,8.95
2022-08-29T23:30:13.944Z,8.57
2022-08-29T23:32:46.996Z,8.05
2022-08-29T23:35:16.269Z,9.07
2022-08-29T23:37:46.872Z,8.45
2022-08-29T23:40:16.259Z,8.48
2022-08-29T23:42:50.650Z,8.73
2022-08-29T23:45:22.012Z,8.13
2022-08-29T23:47:52.018Z,8.80
2022-08-29T23:50:21.377Z,8.52
2022-08-29T23:52:50.579Z,7.72
2022-08-29T23:55:25.038Z,7.10
2022-08-29T23:58:04.633Z,7.25
